createdAt,value
2019-04-10T00:00:37.264Z,4.60
2019-04-10T00:03:06.301Z,3.77
2019-04-10T00:05:36.091Z,4.53
2019-04-10T00:08:06.198Z,4.33
2019-04-10T00:10:36.192Z,4.87
2019-04-10T00:13:05.113Z,4.90
2019-04-10T00:15:34.731Z,5.20
2019-04-10T00:18:03.448Z,5.10
2019-04-10T00:20:32.334Z,4.63
2019-04-10T00:23:01.179Z,4.43
2019-04-10T00:25:29.862Z,4.47
2019-04-10T00:27:59.038Z,5.23
2019-04-10T00:30:29.639Z,4.80
2019-04-10T00:32:58.563Z,4.30
2019-04-10T00:35:27.626Z,5.70
2019-04-10T00:37:57.468Z,4.57
2019-04-10T00:40:26.279Z,4.83
2019-04-10T00:42:57.065Z,4.73
2019-04-10T00:45:25.488Z,4.40
2019-04-10T00:47:55.056Z,5.20
2019-04-10T00:50:24.506Z,5.23
2019-04-10T00:52:54.658Z,4.90
2019-04-10T00:55:23.846Z,4.50
2019-04-10T00:57:52.591Z,5.70
2019-04-10T01:00:22.096Z,5.27
2019-04-10T01:02:53.273Z,4.87
2019-04-10T01:05:22.874Z,5.27
2019-04-10T01:07:51.949Z,5.50
2019-04-10T01:10:21.990Z,5.00
2019-04-10T01:12:52.278Z,5.10
2019-04-10T01:15:21.222Z,5.40
2019-04-10T01:17:50.701Z,6.20
2019-04-10T01:20:20.071Z,5.97
2019-04-10T01:22:49.797Z,5.77
2019-04-10T01:25:18.753Z,5.00
2019-04-10T01:27:47.987Z,6.03
2019-04-10T01:30:18.109Z,5.57
2019-04-10T01:32:46.785Z,4.93
2019-04-10T01:35:16.135Z,5.93
2019-04-10T01:37:51.903Z,4.87
2019-04-10T01:40:17.106Z,5.10
2019-04-10T01:43:01.718Z,5.20
2019-04-10T01:45:17.477Z,6.13
2019-04-10T01:47:47.622Z,5.27
2019-04-10T01:50:16.444Z,6.00
2019-04-10T01:52:45.130Z,5.87
2019-04-10T01:55:20.166Z,5.70
2019-04-10T01:57:44.769Z,6.03
2019-04-10T02:00:17.620Z,5.83
2019-04-10T02:02:51.444Z,5.70
2019-04-10T02:05:20.750Z,5.80
2019-04-10T02:08:01.060Z,6.07
2019-04-10T02:10:20.525Z,5.63
2019-04-10T02:12:50.684Z,5.87
2019-04-10T02:15:19.734Z,6.00
2019-04-10T02:17:48.724Z,6.47
2019-04-10T02:20:18.857Z,5.90
2019-04-10T02:22:48.019Z,5.20
2019-04-10T02:25:17.928Z,5.17
2019-04-10T02:27:56.380Z,5.80
2019-04-10T02:30:26.153Z,6.07
2019-04-10T02:32:55.847Z,6.30
2019-04-10T02:35:24.758Z,5.40
2019-04-10T02:37:56.109Z,5.23
2019-04-10T02:40:25.540Z,6.80
2019-04-10T02:42:54.799Z,5.97
2019-04-10T02:45:24.232Z,5.50
2019-04-10T02:47:54.912Z,6.33
2019-04-10T02:50:25.121Z,6.03
2019-04-10T02:52:55.019Z,6.27
2019-04-10T02:55:25.071Z,6.03
2019-04-10T02:57:54.289Z,6.23
2019-04-10T03:00:25.087Z,5.87
2019-04-10T03:02:55.541Z,6.47
2019-04-10T03:05:27.216Z,6.13
2019-04-10T03:07:55.992Z,6.53
2019-04-10T03:10:34.067Z,7.50
2019-04-10T03:12:56.531Z,5.30
2019-04-10T03:15:25.397Z,6.27
2019-04-10T03:17:54.524Z,6.00
2019-04-10T03:20:24.520Z,6.47
2019-04-10T03:22:53.669Z,5.60
2019-04-10T03:25:22.392Z,5.80
2019-04-10T03:27:51.135Z,5.93
2019-04-10T03:30:22.353Z,5.83
2019-04-10T03:33:08.549Z,6.40
2019-04-10T03:35:45.092Z,5.80
2019-04-10T03:38:14.767Z,5.50
2019-04-10T03:40:43.839Z,6.50
2019-04-10T03:43:13.886Z,5.83
2019-04-10T03:45:42.790Z,6.20
2019-04-10T03:48:11.772Z,5.57
2019-04-10T03:50:41.583Z,5.77
2019-04-10T03:53:10.317Z,6.47
2019-04-10T03:55:39.049Z,6.03
2019-04-10T03:58:07.713Z,6.30
2019-04-10T04:00:36.371Z,6.13
2019-04-10T04:03:05.044Z,6.17
2019-04-10T04:05:34.904Z,5.43
2019-04-10T04:08:05.435Z,6.87
2019-04-10T04:10:35.057Z,6.23
2019-04-10T04:13:05.959Z,7.17
2019-04-10T04:15:35.743Z,6.20
2019-04-10T04:18:07.579Z,5.33
2019-04-10T04:20:37.151Z,6.63
2019-04-10T04:23:06.009Z,5.97
2019-04-10T04:25:34.744Z,6.70
2019-04-10T04:28:04.640Z,5.63
2019-04-10T04:30:34.084Z,6.83
2019-04-10T04:33:02.863Z,6.17
2019-04-10T04:35:31.988Z,6.13
2019-04-10T04:38:00.632Z,5.77
2019-04-10T04:40:30.047Z,5.90
2019-04-10T04:43:00.062Z,6.27
2019-04-10T04:45:29.928Z,7.17
2019-04-10T04:47:59.765Z,7.00
2019-04-10T04:50:29.266Z,6.10
2019-04-10T04:52:58.290Z,5.83
2019-04-10T04:55:27.082Z,6.30
2019-04-10T04:57:55.792Z,6.17
2019-04-10T05:00:25.681Z,5.90
2019-04-10T05:02:55.711Z,5.73
2019-04-10T05:05:25.370Z,5.53
2019-04-10T05:07:59.305Z,5.80
2019-04-10T05:10:25.225Z,6.17
2019-04-10T05:12:54.082Z,5.47
2019-04-10T05:15:22.971Z,5.97
2019-04-10T05:17:51.677Z,6.47
2019-04-10T05:20:20.419Z,5.20
2019-04-10T05:22:52.395Z,6.13
2019-04-10T05:25:21.060Z,6.53
2019-04-10T05:27:51.007Z,6.73
2019-04-10T05:30:20.704Z,5.93
2019-04-10T05:32:49.472Z,7.00
2019-04-10T05:35:19.290Z,5.63
2019-04-10T05:37:48.220Z,5.90
2019-04-10T05:40:17.484Z,5.87
2019-04-10T05:42:47.188Z,5.93
2019-04-10T05:45:17.023Z,6.90
2019-04-10T05:47:46.629Z,5.77
2019-04-10T05:50:15.604Z,6.10
2019-04-10T05:52:45.097Z,6.80
2019-04-10T05:55:13.985Z,6.60
2019-04-10T05:57:43.288Z,6.83
2019-04-10T06:00:13.986Z,5.43
2019-04-10T06:02:43.865Z,5.83
2019-04-10T06:05:12.735Z,6.03
2019-04-10T06:07:41.412Z,6.20
2019-04-10T06:10:10.906Z,7.07
2019-04-10T06:12:39.998Z,6.07
2019-04-10T06:15:08.820Z,6.80
2019-04-10T06:17:38.554Z,6.40
2019-04-10T06:20:07.749Z,6.83
2019-04-10T06:22:36.860Z,6.17
2019-04-10T06:25:08.664Z,6.77
2019-04-10T06:27:37.175Z,6.43
2019-04-10T06:30:07.903Z,6.10
2019-04-10T06:32:37.604Z,6.07
2019-04-10T06:35:08.244Z,6.00
2019-04-10T06:37:38.021Z,6.03
2019-04-10T06:40:14.313Z,5.83
2019-04-10T06:42:46.106Z,6.07
2019-04-10T06:45:09.423Z,5.70
2019-04-10T06:47:38.537Z,5.77
2019-04-10T06:50:07.481Z,6.27
2019-04-10T06:52:36.192Z,6.00
2019-04-10T06:55:05.974Z,6.03
2019-04-10T06:57:47.877Z,5.77
2019-04-10T07:00:12.147Z,4.97
2019-04-10T07:02:38.769Z,4.33
2019-04-10T07:05:10.247Z,4.60
2019-04-10T07:07:47.436Z,5.13
2019-04-10T07:10:23.767Z,5.37
2019-04-10T07:12:41.587Z,5.60
2019-04-10T07:15:10.709Z,4.80
2019-04-10T07:17:41.676Z,5.43
2019-04-10T07:20:10.653Z,4.50
2019-04-10T07:22:44.664Z,4.97
2019-04-10T07:25:11.641Z,5.27
2019-04-10T07:27:41.751Z,5.17
2019-04-10T07:30:11.895Z,5.70
2019-04-10T07:32:43.281Z,4.47
2019-04-10T07:35:13.943Z,4.97
2019-04-10T07:37:42.528Z,5.17
2019-04-10T07:40:12.324Z,5.10
2019-04-10T07:42:42.983Z,4.43
2019-04-10T07:45:11.967Z,4.60
2019-04-10T07:47:41.930Z,5.10
2019-04-10T07:50:12.210Z,4.70
2019-04-10T07:52:41.425Z,5.37
2019-04-10T07:55:10.756Z,4.30
2019-04-10T07:57:40.594Z,5.43
2019-04-10T08:00:13.405Z,4.87
2019-04-10T08:02:42.741Z,4.33
2019-04-10T08:05:12.260Z,4.40
2019-04-10T08:07:41.153Z,5.20
2019-04-10T08:10:10.194Z,5.13
2019-04-10T08:12:45.882Z,4.90
2019-04-10T08:15:09.490Z,4.70
2019-04-10T08:17:39.000Z,5.23
2019-04-10T08:20:08.100Z,4.20
2019-04-10T08:22:37.198Z,3.97
2019-04-10T08:25:06.620Z,9.70
2019-04-10T08:27:36.199Z,4.10
2019-04-10T08:30:05.735Z,4.43
2019-04-10T08:32:47.401Z,4.93
2019-04-10T08:35:06.901Z,4.30
2019-04-10T08:37:36.792Z,4.17
2019-04-10T08:40:07.562Z,4.33
2019-04-10T08:42:37.310Z,4.57
2019-04-10T08:45:07.126Z,4.50
2019-04-10T08:47:35.928Z,4.80
2019-04-10T08:50:05.669Z,4.67
2019-04-10T08:52:34.699Z,4.50
2019-04-10T08:55:04.045Z,4.70
2019-04-10T08:57:32.732Z,4.27
2019-04-10T09:00:02.665Z,4.23
2019-04-10T09:02:31.823Z,5.00
2019-04-10T09:05:01.512Z,4.30
2019-04-10T09:07:30.499Z,4.70
2019-04-10T09:09:59.196Z,4.20
2019-04-10T09:12:28.043Z,4.40
2019-04-10T09:14:57.233Z,4.10
2019-04-10T09:17:27.041Z,4.70
2019-04-10T09:19:56.208Z,4.50
2019-04-10T09:22:25.358Z,4.83
2019-04-10T09:24:54.906Z,4.03
2019-04-10T09:27:24.689Z,4.20
2019-04-10T09:29:54.178Z,4.60
2019-04-10T09:32:23.306Z,4.03
2019-04-10T09:34:52.148Z,4.70
2019-04-10T09:37:22.016Z,4.57
2019-04-10T09:39:52.387Z,4.00
2019-04-10T09:42:21.565Z,4.43
2019-04-10T09:44:50.696Z,4.57
2019-04-10T09:47:20.535Z,3.90
2019-04-10T09:49:49.637Z,4.37
2019-04-10T09:52:18.708Z,4.23
2019-04-10T09:54:48.817Z,4.97
2019-04-10T09:57:18.207Z,4.63
2019-04-10T09:59:47.300Z,4.43
2019-04-10T10:02:17.775Z,4.43
2019-04-10T10:04:46.588Z,5.13
2019-04-10T10:07:16.247Z,4.93
2019-04-10T10:09:45.230Z,4.47
2019-04-10T10:12:14.004Z,4.33
2019-04-10T10:14:44.213Z,4.80
2019-04-10T10:17:13.001Z,4.27
2019-04-10T10:19:42.610Z,5.33
2019-04-10T10:22:12.643Z,3.97
2019-04-10T10:24:42.546Z,3.97
2019-04-10T10:27:11.500Z,4.53
2019-04-10T10:29:40.522Z,5.27
2019-04-10T10:32:09.518Z,4.50
2019-04-10T10:34:38.780Z,4.67
2019-04-10T10:37:08.407Z,4.90
2019-04-10T10:39:37.583Z,4.97
2019-04-10T10:42:07.604Z,4.40
2019-04-10T10:44:36.801Z,4.33
2019-04-10T10:47:06.267Z,4.73
2019-04-10T10:49:35.295Z,4.50
2019-04-10T10:52:04.497Z,4.70
2019-04-10T10:54:34.698Z,4.30
2019-04-10T10:57:04.004Z,4.07
2019-04-10T10:59:33.527Z,4.23
2019-04-10T11:02:02.445Z,3.87
2019-04-10T11:04:31.619Z,5.00
2019-04-10T11:07:01.204Z,4.20
2019-04-10T11:09:30.219Z,4.17
2019-04-10T11:12:00.117Z,3.87
2019-04-10T11:14:29.928Z,4.03
2019-04-10T11:16:58.829Z,4.33
2019-04-10T11:19:27.476Z,3.23
2019-04-10T11:21:56.910Z,4.20
2019-04-10T11:24:26.740Z,3.47
2019-04-10T11:26:55.865Z,3.77
2019-04-10T11:29:24.601Z,3.60
2019-04-10T11:31:53.724Z,4.10
2019-04-10T11:34:24.302Z,3.70
2019-04-10T11:37:15.627Z,3.90
2019-04-10T11:39:28.258Z,3.33
2019-04-10T11:41:55.284Z,4.33
2019-04-10T11:44:24.935Z,3.40
2019-04-10T11:46:56.540Z,3.67
2019-04-10T11:49:27.259Z,3.93
2019-04-10T11:51:56.726Z,3.53
2019-04-10T11:54:28.177Z,3.90
2019-04-10T11:56:58.639Z,3.83
2019-04-10T11:59:28.674Z,3.10
2019-04-10T12:02:00.978Z,3.47
2019-04-10T12:04:30.528Z,3.63
2019-04-10T12:07:01.542Z,3.90
2019-04-10T12:10:47.890Z,3.20
2019-04-10T12:11:59.470Z,2.70
2019-04-10T12:14:29.888Z,2.80
2019-04-10T12:16:58.727Z,3.00
2019-04-10T12:19:27.644Z,3.23
2019-04-10T12:21:56.479Z,3.23
2019-04-10T12:24:25.972Z,3.23
2019-04-10T12:26:54.865Z,3.37
2019-04-10T12:29:24.587Z,3.43
2019-04-10T12:31:54.531Z,3.50
2019-04-10T12:34:24.349Z,3.43
2019-04-10T12:36:53.443Z,3.10
2019-04-10T12:39:22.693Z,3.50
2019-04-10T12:41:51.999Z,3.70
2019-04-10T12:44:21.337Z,3.20
2019-04-10T12:46:51.174Z,3.30
2019-04-10T12:49:20.227Z,3.67
2019-04-10T12:51:50.032Z,3.57
2019-04-10T12:54:19.590Z,3.20
2019-04-10T12:56:48.580Z,2.93
2019-04-10T12:59:17.426Z,3.43
2019-04-10T13:01:47.021Z,2.97
2019-04-10T13:04:16.261Z,2.90
2019-04-10T13:06:44.928Z,3.80
2019-04-10T13:09:14.453Z,3.80
2019-04-10T13:11:43.440Z,3.33
2019-04-10T13:14:12.603Z,2.83
2019-04-10T13:16:42.748Z,3.20
2019-04-10T13:19:11.542Z,3.40
2019-04-10T13:21:40.199Z,3.47
2019-04-10T13:24:09.233Z,3.37
2019-04-10T13:26:38.161Z,3.50
2019-04-10T13:29:07.756Z,3.03
2019-04-10T13:31:37.297Z,3.43
2019-04-10T13:34:06.104Z,3.70
2019-04-10T13:36:35.620Z,3.83
2019-04-10T13:39:06.649Z,3.50
2019-04-10T13:41:36.558Z,3.20
2019-04-10T13:44:06.574Z,3.33
2019-04-10T13:46:35.541Z,3.30
2019-04-10T13:49:04.359Z,3.17
2019-04-10T13:51:33.441Z,3.50
2019-04-10T13:54:02.232Z,2.90
2019-04-10T13:56:30.985Z,3.50
2019-04-10T13:59:00.560Z,3.30
2019-04-10T14:01:31.669Z,3.10
2019-04-10T14:04:00.787Z,3.33
2019-04-10T14:06:29.771Z,3.30
2019-04-10T14:09:15.165Z,3.27
2019-04-10T14:11:29.197Z,3.30
2019-04-10T14:13:58.258Z,3.07
2019-04-10T14:16:27.005Z,3.50
2019-04-10T14:18:55.695Z,3.40
2019-04-10T14:21:24.862Z,3.47
2019-04-10T14:23:53.713Z,3.07
2019-04-10T14:26:41.905Z,2.90
2019-04-10T14:29:07.562Z,3.50
2019-04-10T14:31:39.201Z,3.27
2019-04-10T14:34:08.229Z,3.23
2019-04-10T14:36:38.025Z,2.87
2019-04-10T14:39:17.848Z,2.80
2019-04-10T14:41:44.239Z,3.10
2019-04-10T14:44:14.626Z,2.87
2019-04-10T14:46:44.234Z,2.83
2019-04-10T14:49:13.374Z,2.90
2019-04-10T14:51:42.322Z,3.60
2019-04-10T14:54:11.378Z,3.00
2019-04-10T14:56:40.066Z,3.30
2019-04-10T14:59:09.496Z,3.27
2019-04-10T15:01:38.855Z,3.97
2019-04-10T15:04:08.748Z,2.97
2019-04-10T15:06:37.675Z,3.90
2019-04-10T15:09:22.149Z,3.30
2019-04-10T15:11:46.836Z,2.90
2019-04-10T15:14:15.948Z,2.63
2019-04-10T15:16:53.412Z,3.20
2019-04-10T15:19:16.277Z,3.10
2019-04-10T15:21:45.564Z,3.00
2019-04-10T15:24:15.291Z,3.40
2019-04-10T15:26:44.578Z,3.23
2019-04-10T15:29:14.228Z,3.03
2019-04-10T15:31:43.997Z,2.80
2019-04-10T15:34:13.965Z,2.60
2019-04-10T15:36:44.889Z,3.23
2019-04-10T15:39:13.167Z,2.90
2019-04-10T15:41:41.954Z,3.00
2019-04-10T15:44:11.930Z,2.90
2019-04-10T15:46:41.467Z,3.07
2019-04-10T15:49:11.098Z,3.07
2019-04-10T15:51:39.843Z,2.70
2019-04-10T15:54:09.641Z,2.60
2019-04-10T15:56:38.487Z,3.10
2019-04-10T15:59:08.106Z,2.87
2019-04-10T16:01:37.220Z,2.70
2019-04-10T16:04:05.992Z,2.63
2019-04-10T16:06:35.557Z,3.20
2019-04-10T16:09:07.106Z,3.23
2019-04-10T16:11:44.517Z,3.00
2019-04-10T16:14:20.909Z,2.90
2019-04-10T16:16:59.031Z,2.90
2019-04-10T16:19:43.540Z,3.10
2019-04-10T16:22:25.563Z,3.00
2019-04-10T16:24:55.546Z,3.33
2019-04-10T16:27:24.406Z,3.20
2019-04-10T16:29:53.498Z,2.83
2019-04-10T16:32:24.458Z,3.00
2019-04-10T16:34:53.210Z,2.70
2019-04-10T16:37:22.170Z,2.87
2019-04-10T16:39:58.485Z,2.50
2019-04-10T16:42:22.321Z,2.50
2019-04-10T16:44:51.315Z,2.63
2019-04-10T16:47:20.153Z,2.40
2019-04-10T16:49:48.992Z,3.20
2019-04-10T16:52:17.741Z,3.03
2019-04-10T16:54:46.543Z,3.13
2019-04-10T16:57:15.298Z,3.20
2019-04-10T16:59:44.035Z,2.80
2019-04-10T17:02:12.732Z,2.60
2019-04-10T17:04:41.727Z,2.83
2019-04-10T17:07:10.676Z,2.60
2019-04-10T17:09:40.780Z,3.37
2019-04-10T17:12:09.633Z,2.90
2019-04-10T17:14:39.777Z,2.50
2019-04-10T17:17:08.715Z,2.70
2019-04-10T17:19:46.503Z,2.77
2019-04-10T17:22:08.866Z,3.00
2019-04-10T17:24:37.855Z,2.90
2019-04-10T17:27:07.858Z,3.00
2019-04-10T17:29:36.928Z,2.50
2019-04-10T17:32:06.855Z,2.80
2019-04-10T17:34:36.091Z,3.23
2019-04-10T17:37:05.461Z,2.80
2019-04-10T17:39:35.493Z,2.97
2019-04-10T17:42:04.408Z,3.00
2019-04-10T17:44:33.847Z,2.73
2019-04-10T17:47:03.954Z,3.10
2019-04-10T17:49:33.894Z,3.10
2019-04-10T17:52:03.861Z,2.97
2019-04-10T17:54:33.127Z,2.80
2019-04-10T17:57:02.470Z,2.30
2019-04-10T17:59:32.325Z,3.17
2019-04-10T18:02:05.430Z,2.60
2019-04-10T18:04:34.817Z,5.23
2019-04-10T18:07:03.884Z,2.90
2019-04-10T18:09:34.643Z,3.23
2019-04-10T18:12:04.232Z,2.67
2019-04-10T18:14:36.087Z,2.83
2019-04-10T18:17:04.504Z,2.80
2019-04-10T18:19:34.315Z,3.33
2019-04-10T18:22:04.106Z,3.17
2019-04-10T18:24:33.747Z,2.83
2019-04-10T18:27:02.423Z,2.97
2019-04-10T18:29:31.107Z,3.00
2019-04-10T18:32:00.971Z,2.87
2019-04-10T18:34:30.439Z,3.10
2019-04-10T18:37:02.257Z,3.43
2019-04-10T18:39:30.444Z,3.23
2019-04-10T18:41:59.732Z,3.47
2019-04-10T18:44:29.090Z,3.17
2019-04-10T18:47:00.686Z,3.30
2019-04-10T18:49:29.566Z,2.87
2019-04-10T18:51:59.066Z,2.73
2019-04-10T18:54:27.933Z,3.00
2019-04-10T18:56:57.693Z,2.30
2019-04-10T18:59:34.429Z,3.07
2019-04-10T19:02:22.099Z,3.37
2019-04-10T19:04:59.359Z,3.40
2019-04-10T19:07:28.102Z,3.00
2019-04-10T19:09:57.106Z,3.10
2019-04-10T19:12:26.467Z,2.80
2019-04-10T19:14:56.744Z,2.43
2019-04-10T19:17:26.608Z,3.10
2019-04-10T19:19:56.748Z,2.63
2019-04-10T19:22:26.305Z,2.83
2019-04-10T19:24:55.075Z,2.60
2019-04-10T19:27:25.086Z,2.87
2019-04-10T19:29:54.978Z,3.10
2019-04-10T19:32:30.014Z,2.77
2019-04-10T19:34:59.087Z,3.20
2019-04-10T19:37:28.441Z,3.10
2019-04-10T19:39:58.375Z,2.50
2019-04-10T19:42:27.411Z,2.70
2019-04-10T19:44:56.139Z,2.70
2019-04-10T19:47:24.775Z,2.60
2019-04-10T19:49:53.713Z,2.50
2019-04-10T19:52:22.567Z,2.30
2019-04-10T19:54:51.586Z,2.10
2019-04-10T19:57:22.151Z,2.67
2019-04-10T19:59:50.680Z,2.90
2019-04-10T20:02:19.421Z,2.67
2019-04-10T20:04:48.612Z,2.60
2019-04-10T20:07:17.307Z,3.37
2019-04-10T20:09:46.458Z,2.60
2019-04-10T20:12:16.128Z,2.63
2019-04-10T20:14:44.987Z,2.90
2019-04-10T20:17:13.733Z,2.73
2019-04-10T20:19:42.584Z,2.40
2019-04-10T20:22:12.601Z,2.60
2019-04-10T20:24:41.432Z,2.50
2019-04-10T20:27:10.101Z,2.23
2019-04-10T20:29:39.347Z,2.60
2019-04-10T20:32:08.286Z,2.40
2019-04-10T20:34:37.843Z,2.00
2019-04-10T20:37:09.665Z,2.70
2019-04-10T20:39:37.147Z,1.93
2019-04-10T20:42:05.872Z,2.63
2019-04-10T20:44:34.545Z,2.50
2019-04-10T20:47:03.467Z,2.47
2019-04-10T20:49:32.754Z,2.80
2019-04-10T20:52:02.077Z,2.50
2019-04-10T20:54:30.936Z,2.50
2019-04-10T20:56:59.601Z,2.53
2019-04-10T20:59:28.589Z,2.30
2019-04-10T21:01:57.792Z,2.03
2019-04-10T21:04:27.627Z,2.30
2019-04-10T21:06:56.637Z,2.40
2019-04-10T21:09:25.806Z,2.80
2019-04-10T21:12:02.008Z,2.27
2019-04-10T21:14:25.463Z,2.10
2019-04-10T21:16:54.540Z,2.57
2019-04-10T21:19:24.731Z,2.30
2019-04-10T21:21:55.341Z,2.60
2019-04-10T21:24:25.236Z,2.70
2019-04-10T21:26:54.893Z,2.13
2019-04-10T21:29:42.114Z,2.07
2019-04-10T21:32:23.943Z,2.50
2019-04-10T21:34:53.521Z,2.47
2019-04-10T21:37:22.335Z,2.50
2019-04-10T21:39:52.197Z,2.63
2019-04-10T21:42:23.861Z,2.43
2019-04-10T21:44:51.544Z,2.10
2019-04-10T21:47:21.525Z,2.83
2019-04-10T21:49:50.668Z,2.20
2019-04-10T21:52:20.402Z,2.60
2019-04-10T21:56:18.091Z,2.17
2019-04-10T21:58:46.963Z,1.83
2019-04-10T22:01:17.579Z,2.50
2019-04-10T22:03:46.818Z,2.93
2019-04-10T22:06:43.048Z,2.40
2019-04-10T22:09:30.531Z,2.60
2019-04-10T22:12:01.583Z,2.63
2019-04-10T22:14:30.302Z,2.47
2019-04-10T22:17:00.297Z,2.30
2019-04-10T22:19:30.444Z,2.80
2019-04-10T22:21:59.373Z,2.80
2019-04-10T22:24:28.048Z,2.40
2019-04-10T22:26:56.893Z,2.67
2019-04-10T22:29:25.921Z,2.50
2019-04-10T22:31:54.963Z,2.93
2019-04-10T22:34:23.654Z,2.17
2019-04-10T22:36:53.423Z,2.47
2019-04-10T22:39:23.079Z,2.67
2019-04-10T22:41:51.839Z,2.53
2019-04-10T22:44:33.267Z,2.73
2019-04-10T22:46:52.335Z,2.10
2019-04-10T22:49:22.203Z,2.60
2019-04-10T22:51:51.798Z,2.20
2019-04-10T22:54:20.565Z,3.30
2019-04-10T22:56:49.962Z,2.87
2019-04-10T22:59:19.026Z,2.50
2019-04-10T23:01:59.627Z,2.60
2019-04-10T23:04:20.181Z,2.57
2019-04-10T23:06:49.380Z,2.40
2019-04-10T23:09:18.059Z,2.03
2019-04-10T23:11:47.068Z,2.53
2019-04-10T23:14:16.000Z,2.50
2019-04-10T23:16:44.760Z,2.60
2019-04-10T23:19:14.064Z,2.83
2019-04-10T23:21:42.976Z,2.57
2019-04-10T23:24:11.943Z,2.20
2019-04-10T23:26:41.632Z,1.93
2019-04-10T23:29:11.699Z,2.50
2019-04-10T23:31:41.604Z,2.33
2019-04-10T23:34:10.474Z,2.87
2019-04-10T23:36:40.405Z,2.17
2019-04-10T23:39:10.117Z,2.67
2019-04-10T23:41:39.788Z,2.80
2019-04-10T23:44:08.976Z,2.73
2019-04-10T23:46:38.883Z,3.00
2019-04-10T23:49:08.986Z,2.73
2019-04-10T23:51:38.982Z,2.40
2019-04-10T23:54:09.060Z,3.20
2019-04-10T23:56:38.118Z,2.50
